Depesza METAR lotniska Warszawa-Okęcie


METAR = EPWA 032130Z 06007KT CAVOK 25/14 Q1019 NOSIG

STACJA......... EPWA - Warszawa-Okęcie (WAW)
POMIAR......... Mon Aug 3, 23:30 CEST
TERAZ.......... Mon Aug 3, 23:37 CEST
CZAS........... 7 min temu
WIATR.......... wschodni północno-wschodni (ENE) z prędkością 13 km/h
WIDZIALNOŚĆ.... powyżej 10 kilometrów
CHMURY......... bezchmurne niebo
TEMPERATURA.... 25°C
T.PUNKTU ROSY.. 14°C
WILGOTNOŚĆ..... 51%
CIŚNIENIE...... 1019 hPa
PROGNOZA....... bez nagłych zmian w ciągu 2h

Depesza METAR lotniska Kraków-Balice


METAR = EPKK 032130Z 08003KT CAVOK 21/17 Q1019

STACJA......... EPKK - Kraków-Balice (KRK)
POMIAR......... Mon Aug 3, 23:30 CEST
TERAZ.......... Mon Aug 3, 23:37 CEST
CZAS........... 7 min temu
WIATR.......... wschodni (E) z prędkością 6 km/h
WIDZIALNOŚĆ.... powyżej 10 kilometrów
CHMURY......... bezchmurne niebo
TEMPERATURA.... 21°C
T.PUNKTU ROSY.. 17°C
WILGOTNOŚĆ..... 78%
CIŚNIENIE...... 1019 hPa

Depesza METAR lotniska Łódź-Lublinek


METAR = EPLL 032130Z 07004KT CAVOK 24/09 Q1019

STACJA......... EPLL - Łódź-Lublinek (LCJ)
POMIAR......... Mon Aug 3, 23:30 CEST
TERAZ.......... Mon Aug 3, 23:37 CEST
CZAS........... 7 min temu
WIATR.......... wschodni północno-wschodni (ENE) z prędkością 7 km/h
WIDZIALNOŚĆ.... powyżej 10 kilometrów
CHMURY......... bezchmurne niebo
TEMPERATURA.... 24°C
T.PUNKTU ROSY.. 9°C
WILGOTNOŚĆ..... 39%
CIŚNIENIE...... 1019 hPa

Depesza METAR lotniska Wrocław-Strachowice


METAR = EPWR 032130Z 33002KT CAVOK 22/14 Q1018

STACJA......... EPWR - Wrocław-Strachowice (WRO)
POMIAR......... Mon Aug 3, 23:30 CEST
TERAZ.......... Mon Aug 3, 23:37 CEST
CZAS........... 7 min temu
WIATR.......... północno północno-zachodni (NNW) z prędkością 4 km/h
WIDZIALNOŚĆ.... powyżej 10 kilometrów
CHMURY......... bezchmurne niebo
TEMPERATURA.... 22°C
T.PUNKTU ROSY.. 14°C
WILGOTNOŚĆ..... 61%
CIŚNIENIE...... 1018 hPa

Depesza METAR lotniska Katowice-Pyrzowice


METAR = EPKT 032130Z 04001KT CAVOK 20/14 Q1019

STACJA......... EPKT - Katowice-Pyrzowice (KTW)
POMIAR......... Mon Aug 3, 23:30 CEST
TERAZ.......... Mon Aug 3, 23:37 CEST
CZAS........... 7 min temu
WIATR.......... północno-wschodni (NE) z prędkością 2 km/h
WIDZIALNOŚĆ.... powyżej 10 kilometrów
CHMURY......... bezchmurne niebo
TEMPERATURA.... 20°C
T.PUNKTU ROSY.. 14°C
WILGOTNOŚĆ..... 69%
CIŚNIENIE...... 1019 hPa

Depesza METAR lotniska Gdańsk


METAR = EPGD 032130Z 08002KT CAVOK 16/14 Q1021

STACJA......... EPGD - Gdańsk im. Lecha Wałęsy (GDN)
POMIAR......... Mon Aug 3, 23:30 CEST
TERAZ.......... Mon Aug 3, 23:37 CEST
CZAS........... 7 min temu
WIATR.......... wschodni (E) z prędkością 4 km/h
WIDZIALNOŚĆ.... powyżej 10 kilometrów
CHMURY......... bezchmurne niebo
TEMPERATURA.... 16°C
T.PUNKTU ROSY.. 14°C
WILGOTNOŚĆ..... 88%
CIŚNIENIE...... 1021 hPa

Depesza METAR lotniska Poznań-Ławica


METAR = EPPO 032130Z 10003KT CAVOK 22/12 Q1018

STACJA......... EPPO - Poznań-Ławica (POZ)
POMIAR......... Mon Aug 3, 23:30 CEST
TERAZ.......... Mon Aug 3, 23:37 CEST
CZAS........... 7 min temu
WIATR.......... wschodni (E) z prędkością 6 km/h
WIDZIALNOŚĆ.... powyżej 10 kilometrów
CHMURY......... bezchmurne niebo
TEMPERATURA.... 22°C
T.PUNKTU ROSY.. 12°C
WILGOTNOŚĆ..... 53%
CIŚNIENIE...... 1018 hPa

Depesza METAR lotniska Rzeszów-Jasionka


METAR = EPRZ 032130Z 21002KT CAVOK 19/17 Q1019

STACJA......... EPRZ - Rzeszów-Jasionka (RZE)
POMIAR......... Mon Aug 3, 23:30 CEST
TERAZ.......... Mon Aug 3, 23:37 CEST
CZAS........... 7 min temu
WIATR.......... południowo południowo-zachodni  (SSW) z prędkością 4 km/h
WIDZIALNOŚĆ.... powyżej 10 kilometrów
CHMURY......... bezchmurne niebo
TEMPERATURA.... 19°C
T.PUNKTU ROSY.. 17°C
WILGOTNOŚĆ..... 88%
CIŚNIENIE...... 1019 hPa

Depesza METAR lotniska Szczecin-Goleniów


METAR = EPSC 032130Z 06005KT CAVOK 21/14 Q1018

STACJA......... EPSC - Szczecin-Goleniów (SZZ)
POMIAR......... Mon Aug 3, 23:30 CEST
TERAZ.......... Mon Aug 3, 23:37 CEST
CZAS........... 7 min temu
WIATR.......... wschodni północno-wschodni (ENE) z prędkością 9 km/h
WIDZIALNOŚĆ.... powyżej 10 kilometrów
CHMURY......... bezchmurne niebo
TEMPERATURA.... 21°C
T.PUNKTU ROSY.. 14°C
WILGOTNOŚĆ..... 64%
CIŚNIENIE...... 1018 hPa

Depesza METAR lotniska Lublin-Świdnik


METAR = EPLB 032130Z NIL=

STACJA......... EPLB - Lublin-Świdnik (LUZ)
POMIAR......... Mon Aug 3, 23:30 CEST
TERAZ.......... Mon Aug 3, 23:37 CEST
CZAS........... 7 min temu
DEPESZA........ brak aktualnej prognozy w treści depeszy

Depesza METAR lotniska Bydgoszcz-Szwederowo


METAR = EPBY 032130Z 06006KT CAVOK 21/13 Q1019 =

STACJA......... EPBY - Bydgoszcz-Szwederowo (BZG)
POMIAR......... Mon Aug 3, 23:30 CEST
TERAZ.......... Mon Aug 3, 23:37 CEST
CZAS........... 7 min temu
WIATR.......... wschodni północno-wschodni (ENE) z prędkością 11 km/h
WIDZIALNOŚĆ.... powyżej 10 kilometrów
CHMURY......... bezchmurne niebo
TEMPERATURA.... 21°C
T.PUNKTU ROSY.. 13°C
WILGOTNOŚĆ..... 60%
CIŚNIENIE...... 1019 hPa

Depesza METAR lotniska Zielona Góra-Babimost


METAR = EPZG 032130Z NIL=

STACJA......... EPZG - Zielona Góra-Babimost (IEG)
POMIAR......... Mon Aug 3, 23:30 CEST
TERAZ.......... Mon Aug 3, 23:37 CEST
CZAS........... 7 min temu
DEPESZA........ brak aktualnej prognozy w treści depeszy

Sprawdź też: prognoza pogody dla miast w Polsce!